createdAt,value
2018-04-27T00:00:13.606Z,23.40
2018-04-27T00:02:41.264Z,23.40
2018-04-27T00:05:08.956Z,23.40
2018-04-27T00:07:36.522Z,23.50
2018-04-27T00:10:03.984Z,23.40
2018-04-27T00:12:31.440Z,23.40
2018-04-27T00:14:58.940Z,23.40
2018-04-27T00:17:26.376Z,23.40
2018-04-27T00:19:54.012Z,23.40
2018-04-27T00:22:21.471Z,23.40
2018-04-27T00:24:48.934Z,23.40
2018-04-27T00:27:16.395Z,23.40
2018-04-27T00:29:43.935Z,23.40
2018-04-27T00:32:11.377Z,23.40
2018-04-27T00:34:38.863Z,23.40
2018-04-27T00:37:06.599Z,23.40
2018-04-27T00:39:34.056Z,23.40
2018-04-27T00:42:01.543Z,23.40
2018-04-27T00:44:29.164Z,23.40
2018-04-27T00:46:56.622Z,23.40
2018-04-27T00:49:24.096Z,23.40
2018-04-27T00:51:51.674Z,23.40
2018-04-27T00:54:19.247Z,23.40
2018-04-27T00:56:46.893Z,23.40
2018-04-27T00:59:14.534Z,23.40
2018-04-27T01:01:42.121Z,23.40
2018-04-27T01:04:09.688Z,23.40
2018-04-27T01:06:37.351Z,23.40
2018-04-27T01:09:04.821Z,23.40
2018-04-27T01:11:32.560Z,23.40
2018-04-27T01:14:00.028Z,23.40
2018-04-27T01:16:27.692Z,23.30
2018-04-27T01:18:55.239Z,23.30
2018-04-27T01:21:22.874Z,23.40
2018-04-27T01:23:50.372Z,23.40
2018-04-27T01:26:17.916Z,23.30
2018-04-27T01:28:45.391Z,23.40
2018-04-27T01:31:13.151Z,23.40
2018-04-27T01:33:40.784Z,23.30
2018-04-27T01:36:08.254Z,23.30
2018-04-27T01:38:35.829Z,23.30
2018-04-27T01:41:03.282Z,23.30
2018-04-27T01:43:31.048Z,23.30
2018-04-27T01:45:58.519Z,23.30
2018-04-27T01:48:26.271Z,23.30
2018-04-27T01:50:54.037Z,23.30
2018-04-27T01:53:21.668Z,23.30
2018-04-27T01:55:49.139Z,23.30
2018-04-27T01:58:16.619Z,23.30
2018-04-27T02:00:44.082Z,23.30
2018-04-27T02:06:02.126Z,23.30
2018-04-27T02:08:29.588Z,23.30
2018-04-27T02:10:57.056Z,23.30
2018-04-27T02:13:24.683Z,23.30
2018-04-27T02:15:52.147Z,23.30
2018-04-27T02:18:19.631Z,23.30
2018-04-27T02:20:47.176Z,23.30
2018-04-27T02:23:14.625Z,23.30
2018-04-27T02:25:42.279Z,23.30
2018-04-27T02:28:09.867Z,23.30
2018-04-27T02:30:37.516Z,23.30
2018-04-27T02:33:04.995Z,23.30
2018-04-27T02:35:32.453Z,23.30
2018-04-27T02:37:59.919Z,23.30
2018-04-27T02:40:27.395Z,23.30
2018-04-27T02:42:54.856Z,23.30
2018-04-27T02:45:22.308Z,23.30
2018-04-27T02:47:49.834Z,23.30
2018-04-27T02:50:17.590Z,23.30
2018-04-27T02:52:45.054Z,23.30
2018-04-27T02:55:12.520Z,23.30
2018-04-27T02:57:40.158Z,23.30
2018-04-27T03:00:07.737Z,23.20
2018-04-27T03:02:35.187Z,23.30
2018-04-27T03:05:02.651Z,23.30
2018-04-27T03:07:30.116Z,23.30
2018-04-27T03:09:57.601Z,23.20
2018-04-27T03:12:25.052Z,23.30
2018-04-27T03:14:52.715Z,23.30
2018-04-27T03:17:20.272Z,23.30
2018-04-27T03:19:47.728Z,23.30
2018-04-27T03:22:15.353Z,23.30
2018-04-27T03:24:42.946Z,23.30
2018-04-27T03:27:10.413Z,23.30
2018-04-27T03:29:38.158Z,23.20
2018-04-27T03:32:05.616Z,23.30
2018-04-27T03:34:33.245Z,23.30
2018-04-27T03:37:00.754Z,23.30
2018-04-27T03:39:28.145Z,23.30
2018-04-27T03:41:55.632Z,23.30
2018-04-27T03:44:23.240Z,23.30
2018-04-27T03:46:50.910Z,23.30
2018-04-27T03:49:18.443Z,23.30
2018-04-27T03:51:45.924Z,23.30
2018-04-27T03:54:13.661Z,23.30
2018-04-27T03:56:41.432Z,23.30
2018-04-27T03:59:09.071Z,23.30
2018-04-27T04:01:48.259Z,23.20
2018-04-27T04:04:27.499Z,23.20
2018-04-27T04:06:54.953Z,23.20
2018-04-27T04:09:22.546Z,23.20
2018-04-27T04:11:50.073Z,23.30
2018-04-27T04:14:17.540Z,23.30
2018-04-27T04:16:45.059Z,23.20
2018-04-27T04:19:12.516Z,23.20
2018-04-27T04:21:40.162Z,23.20
2018-04-27T04:24:07.754Z,23.20
2018-04-27T04:26:35.512Z,23.30
2018-04-27T04:29:02.961Z,23.20
2018-04-27T04:31:30.604Z,23.20
2018-04-27T04:33:58.079Z,23.20
2018-04-27T04:36:25.590Z,23.30
2018-04-27T04:38:53.105Z,23.30
2018-04-27T04:41:20.758Z,23.30
2018-04-27T04:43:48.211Z,23.20
2018-04-27T04:46:15.668Z,23.20
2018-04-27T04:48:43.143Z,23.30
2018-04-27T04:51:10.608Z,23.20
2018-04-27T04:53:38.070Z,23.20
2018-04-27T04:56:05.547Z,23.30
2018-04-27T04:58:33.093Z,23.20
2018-04-27T05:01:00.556Z,23.30
2018-04-27T05:03:28.017Z,23.30
2018-04-27T05:05:55.471Z,23.30
2018-04-27T05:08:23.100Z,23.30
2018-04-27T05:10:50.625Z,23.20
2018-04-27T05:13:18.056Z,23.30
2018-04-27T05:15:45.500Z,23.30
2018-04-27T05:21:12.620Z,23.30
2018-04-27T05:23:40.079Z,23.30
2018-04-27T05:26:07.558Z,23.30
2018-04-27T05:28:35.139Z,23.30
2018-04-27T05:31:14.307Z,23.30
2018-04-27T05:33:41.933Z,23.30
2018-04-27T05:36:09.391Z,23.30
2018-04-27T05:38:36.840Z,23.30
2018-04-27T05:41:04.397Z,23.30
2018-04-27T05:43:31.856Z,23.40
2018-04-27T05:45:59.489Z,23.40
2018-04-27T05:48:26.997Z,23.40
2018-04-27T05:50:54.454Z,23.40
2018-04-27T05:53:21.902Z,23.40
2018-04-27T05:55:49.576Z,23.40
2018-04-27T05:58:17.548Z,23.40
2018-04-27T06:00:45.305Z,23.40
2018-04-27T06:03:12.773Z,23.40
2018-04-27T06:05:40.332Z,23.40
2018-04-27T06:08:07.837Z,23.40
2018-04-27T06:10:35.435Z,23.40
2018-04-27T06:13:03.080Z,23.40
2018-04-27T06:15:30.540Z,23.40
2018-04-27T06:17:58.033Z,23.40
2018-04-27T06:20:25.579Z,23.40
2018-04-27T06:22:53.225Z,23.40
2018-04-27T06:25:20.801Z,23.40
2018-04-27T06:27:48.259Z,23.40
2018-04-27T06:30:16.020Z,23.40
2018-04-27T06:32:43.480Z,23.40
2018-04-27T06:35:10.940Z,23.40
2018-04-27T06:37:38.414Z,23.40
2018-04-27T06:40:05.912Z,23.40
2018-04-27T06:42:33.412Z,23.40
2018-04-27T06:45:01.087Z,23.40
2018-04-27T06:47:28.542Z,23.30
2018-04-27T06:49:56.295Z,23.30
2018-04-27T06:52:23.750Z,23.20
2018-04-27T06:54:51.511Z,23.20
2018-04-27T06:57:19.165Z,23.10
2018-04-27T06:59:46.695Z,23.20
2018-04-27T07:02:14.168Z,23.20
2018-04-27T07:04:41.664Z,23.20
2018-04-27T07:07:09.080Z,23.20
2018-04-27T07:09:36.572Z,23.20
2018-04-27T07:12:04.019Z,23.20
2018-04-27T07:14:31.515Z,23.20
2018-04-27T07:17:00.079Z,23.20
2018-04-27T07:19:27.662Z,23.20
2018-04-27T07:21:55.400Z,23.20
2018-04-27T07:24:22.856Z,23.20
2018-04-27T07:26:50.304Z,23.10
2018-04-27T07:29:17.960Z,23.20
2018-04-27T07:31:45.559Z,23.10
2018-04-27T07:34:13.055Z,23.20
2018-04-27T07:36:40.836Z,23.20
2018-04-27T07:39:08.444Z,23.20
2018-04-27T07:41:35.898Z,23.20
2018-04-27T07:44:03.464Z,23.30
2018-04-27T07:46:31.080Z,23.30
2018-04-27T07:48:58.603Z,23.30
2018-04-27T07:51:26.056Z,23.30
2018-04-27T07:53:53.540Z,23.20
2018-04-27T07:56:20.997Z,23.30
2018-04-27T07:58:48.471Z,23.30
2018-04-27T08:01:15.929Z,23.20
2018-04-27T08:03:43.376Z,23.20
2018-04-27T08:06:10.895Z,23.20
2018-04-27T08:08:38.520Z,23.20
2018-04-27T08:11:05.964Z,23.20
2018-04-27T08:13:33.475Z,23.20
2018-04-27T08:16:01.024Z,23.20
2018-04-27T08:18:28.491Z,23.20
2018-04-27T08:20:56.175Z,23.20
2018-04-27T08:23:24.083Z,23.10
2018-04-27T08:25:51.541Z,23.10
2018-04-27T08:28:19.007Z,23.10
2018-04-27T08:30:46.672Z,23.20
2018-04-27T08:33:14.132Z,23.20
2018-04-27T08:35:41.592Z,23.20
2018-04-27T08:38:09.047Z,23.20
2018-04-27T08:40:36.862Z,23.10
2018-04-27T08:43:05.152Z,23.20
2018-04-27T08:45:32.614Z,23.10
2018-04-27T08:48:00.129Z,23.20
2018-04-27T08:50:27.734Z,23.10
2018-04-27T08:52:55.246Z,23.20
2018-04-27T08:55:22.718Z,23.20
2018-04-27T08:57:50.953Z,23.20
2018-04-27T09:00:18.411Z,23.10
2018-04-27T09:02:46.118Z,23.20
2018-04-27T09:05:13.576Z,23.10
2018-04-27T09:07:41.195Z,23.20
2018-04-27T09:10:08.675Z,23.20
2018-04-27T09:12:36.241Z,23.20
2018-04-27T09:15:04.627Z,23.20
2018-04-27T09:17:32.086Z,23.10
2018-04-27T09:19:59.572Z,23.20
2018-04-27T09:22:27.012Z,23.20
2018-04-27T09:24:54.477Z,23.20
2018-04-27T09:27:22.095Z,23.20
2018-04-27T09:29:49.566Z,23.20
2018-04-27T09:32:17.070Z,23.10
2018-04-27T09:34:44.553Z,23.20
2018-04-27T09:37:12.010Z,23.20
2018-04-27T09:39:39.470Z,23.20
2018-04-27T09:42:06.932Z,23.30
2018-04-27T09:44:34.419Z,23.20
2018-04-27T09:47:01.876Z,23.20
2018-04-27T09:49:29.660Z,23.20
2018-04-27T09:51:57.115Z,23.20
2018-04-27T09:54:24.748Z,23.20
2018-04-27T09:56:52.191Z,23.30
2018-04-27T09:59:19.663Z,23.30
2018-04-27T10:01:47.231Z,23.20
2018-04-27T10:04:14.735Z,23.30
2018-04-27T10:06:42.189Z,23.30
2018-04-27T10:09:09.639Z,23.30
2018-04-27T10:11:37.085Z,23.30
2018-04-27T10:14:04.844Z,23.30
2018-04-27T10:16:32.599Z,23.30
2018-04-27T10:19:00.067Z,23.30
2018-04-27T10:21:27.528Z,23.30
2018-04-27T10:23:54.991Z,23.30
2018-04-27T10:26:22.636Z,23.30
2018-04-27T10:28:50.142Z,23.30
2018-04-27T10:31:17.659Z,23.30
2018-04-27T10:33:45.443Z,23.30
2018-04-27T10:36:13.076Z,23.30
2018-04-27T10:38:40.536Z,23.30
2018-04-27T10:41:08.003Z,23.30
2018-04-27T10:43:35.555Z,23.30
2018-04-27T10:46:03.019Z,23.30
2018-04-27T10:48:30.813Z,23.30
2018-04-27T10:50:58.337Z,23.30
2018-04-27T10:53:25.910Z,23.30
2018-04-27T10:55:53.376Z,23.30
2018-04-27T10:58:20.839Z,23.40
2018-04-27T11:00:49.082Z,23.40
2018-04-27T11:03:16.778Z,23.30
2018-04-27T11:05:44.411Z,23.40
2018-04-27T11:08:11.892Z,23.40
2018-04-27T11:10:39.347Z,23.40
2018-04-27T11:13:06.803Z,23.40
2018-04-27T11:15:34.255Z,23.40
2018-04-27T11:18:01.739Z,23.40
2018-04-27T11:20:29.286Z,23.40
2018-04-27T11:22:56.912Z,23.40
2018-04-27T11:25:24.366Z,23.40
2018-04-27T11:27:51.890Z,23.40
2018-04-27T11:30:19.355Z,23.40
2018-04-27T11:32:46.808Z,23.40
2018-04-27T11:35:14.283Z,23.40
2018-04-27T11:37:41.743Z,23.40
2018-04-27T11:40:09.220Z,23.40
2018-04-27T11:42:36.676Z,23.40
2018-04-27T11:45:04.336Z,23.40
2018-04-27T11:47:32.828Z,23.50
2018-04-27T11:50:00.275Z,23.40
2018-04-27T11:52:27.731Z,23.50
2018-04-27T11:54:55.199Z,23.40
2018-04-27T11:57:22.644Z,23.50
2018-04-27T11:59:50.111Z,23.50
2018-04-27T12:02:18.079Z,23.50
2018-04-27T12:04:45.683Z,23.50
2018-04-27T12:07:13.456Z,23.50
2018-04-27T12:09:41.079Z,23.50
2018-04-27T12:12:08.535Z,23.50
2018-04-27T12:14:36.022Z,23.50
2018-04-27T12:17:03.579Z,23.50
2018-04-27T12:19:31.206Z,23.50
2018-04-27T12:21:58.971Z,23.50
2018-04-27T12:24:26.616Z,23.50
2018-04-27T12:26:54.407Z,23.50
2018-04-27T12:29:21.838Z,23.50
2018-04-27T12:31:49.390Z,23.50
2018-04-27T12:34:17.027Z,23.50
2018-04-27T12:36:44.797Z,23.50
2018-04-27T12:39:12.714Z,23.40
2018-04-27T12:41:40.318Z,23.40
2018-04-27T12:44:07.779Z,23.50
2018-04-27T12:46:35.543Z,23.50
2018-04-27T12:49:03.006Z,23.50
2018-04-27T12:51:30.487Z,23.40
2018-04-27T12:53:58.072Z,23.50
2018-04-27T12:56:25.604Z,23.50
2018-04-27T12:58:53.139Z,23.60
2018-04-27T13:01:20.817Z,23.60
2018-04-27T13:03:48.284Z,23.60
2018-04-27T13:06:15.739Z,23.60
2018-04-27T13:08:43.198Z,23.60
2018-04-27T13:11:10.652Z,23.60
2018-04-27T13:13:38.098Z,23.60
2018-04-27T13:16:06.435Z,23.60
2018-04-27T13:18:33.955Z,23.60
2018-04-27T13:21:02.299Z,23.70
2018-04-27T13:23:29.751Z,23.70
2018-04-27T13:25:57.331Z,23.70
2018-04-27T13:28:24.788Z,23.80
2018-04-27T13:30:52.443Z,23.80
2018-04-27T13:33:19.921Z,23.90
2018-04-27T13:35:48.244Z,24.00
2018-04-27T13:38:15.845Z,24.00
2018-04-27T13:40:43.320Z,24.00
2018-04-27T13:43:11.000Z,24.10
2018-04-27T13:45:38.744Z,24.10
2018-04-27T13:48:06.227Z,24.10
2018-04-27T13:50:33.735Z,24.20
2018-04-27T13:53:01.490Z,24.20
2018-04-27T13:55:29.150Z,24.20
2018-04-27T13:57:56.735Z,24.20
2018-04-27T14:00:24.503Z,24.20
2018-04-27T14:02:52.020Z,24.30
2018-04-27T14:05:19.431Z,24.30
2018-04-27T14:07:46.893Z,24.30
2018-04-27T14:10:14.640Z,24.30
2018-04-27T14:12:42.098Z,24.30
2018-04-27T14:15:09.549Z,24.40
2018-04-27T14:17:37.037Z,24.40
2018-04-27T14:20:04.836Z,24.40
2018-04-27T14:22:32.536Z,24.40
2018-04-27T14:25:00.200Z,24.50
2018-04-27T14:27:27.680Z,24.50
2018-04-27T14:29:55.123Z,24.50
2018-04-27T14:32:22.597Z,24.70
2018-04-27T14:34:50.135Z,24.90
2018-04-27T14:37:17.657Z,24.90
2018-04-27T14:39:45.373Z,24.90
2018-04-27T14:42:12.827Z,24.90
2018-04-27T14:44:40.281Z,24.70
2018-04-27T14:47:07.738Z,24.60
2018-04-27T14:49:35.376Z,24.60
2018-04-27T14:52:02.843Z,24.50
2018-04-27T14:54:30.449Z,24.50
2018-04-27T14:56:58.072Z,24.40
2018-04-27T14:59:25.518Z,24.30
2018-04-27T15:01:53.099Z,24.30
2018-04-27T15:04:20.731Z,24.30
2018-04-27T15:06:48.237Z,24.30
2018-04-27T15:09:15.775Z,24.30
2018-04-27T15:11:43.428Z,24.30
2018-04-27T15:14:11.931Z,24.30
2018-04-27T15:16:39.416Z,24.30
2018-04-27T15:19:07.171Z,24.30
2018-04-27T15:21:34.615Z,24.30
2018-04-27T15:24:02.245Z,24.30
2018-04-27T15:26:31.219Z,24.20
2018-04-27T15:28:59.547Z,24.20
2018-04-27T15:31:26.996Z,24.20
2018-04-27T15:33:54.634Z,24.20
2018-04-27T15:36:22.107Z,24.20
2018-04-27T15:38:49.594Z,24.20
2018-04-27T15:41:17.116Z,24.20
2018-04-27T15:43:44.718Z,24.20
2018-04-27T15:46:12.232Z,24.10
2018-04-27T15:48:39.837Z,24.20
2018-04-27T15:51:08.276Z,24.10
2018-04-27T15:53:36.688Z,24.10
2018-04-27T15:56:04.213Z,24.10
2018-04-27T15:58:31.761Z,24.10
2018-04-27T16:00:59.467Z,24.10
2018-04-27T16:03:27.235Z,24.10
2018-04-27T16:05:54.691Z,24.10
2018-04-27T16:08:22.460Z,24.10
2018-04-27T16:10:49.946Z,24.10
2018-04-27T16:13:18.180Z,24.10
2018-04-27T16:15:45.676Z,24.10
2018-04-27T16:18:13.128Z,24.10
2018-04-27T16:20:40.576Z,24.10
2018-04-27T16:23:08.172Z,24.10
2018-04-27T16:25:35.616Z,24.10
2018-04-27T16:28:03.641Z,24.10
2018-04-27T16:30:31.135Z,24.10
2018-04-27T16:32:58.765Z,24.10
2018-04-27T16:35:26.221Z,24.10
2018-04-27T16:37:53.802Z,24.10
2018-04-27T16:40:21.708Z,24.10
2018-04-27T16:42:49.306Z,24.10
2018-04-27T16:45:16.754Z,24.10
2018-04-27T16:47:44.245Z,24.10
2018-04-27T16:50:11.869Z,24.20
2018-04-27T16:52:39.471Z,24.20
2018-04-27T16:55:06.928Z,24.20
2018-04-27T16:57:34.691Z,24.20
2018-04-27T17:00:02.327Z,24.20
2018-04-27T17:02:29.923Z,24.20
2018-04-27T17:04:57.367Z,24.30
2018-04-27T17:07:25.017Z,24.30
2018-04-27T17:09:52.683Z,24.30
2018-04-27T17:12:20.138Z,24.30
2018-04-27T17:14:47.743Z,24.20
2018-04-27T17:17:15.268Z,24.20
2018-04-27T17:19:42.683Z,24.20
2018-04-27T17:22:10.133Z,24.20
2018-04-27T17:24:37.584Z,24.20
2018-04-27T17:27:05.033Z,24.20
2018-04-27T17:29:32.583Z,24.20
2018-04-27T17:32:00.048Z,24.20
2018-04-27T17:34:28.373Z,24.20
2018-04-27T17:36:59.810Z,24.10
2018-04-27T17:39:29.345Z,24.10
2018-04-27T17:41:57.197Z,24.10
2018-04-27T17:44:24.733Z,24.10
2018-04-27T17:46:52.321Z,24.10
2018-04-27T17:49:19.820Z,24.10
2018-04-27T17:51:47.359Z,24.10
2018-04-27T17:54:15.011Z,24.10
2018-04-27T17:56:42.766Z,24.20
2018-04-27T17:59:10.293Z,24.10
2018-04-27T18:01:37.738Z,24.20
2018-04-27T18:04:05.279Z,24.20
2018-04-27T18:06:32.739Z,24.20
2018-04-27T18:09:00.514Z,24.20
2018-04-27T18:11:28.157Z,24.20
2018-04-27T18:13:55.587Z,24.20
2018-04-27T18:16:23.045Z,24.10
2018-04-27T18:18:50.512Z,24.10
2018-04-27T18:21:17.955Z,24.10
2018-04-27T18:23:45.472Z,24.10
2018-04-27T18:26:13.015Z,24.10
2018-04-27T18:28:40.664Z,24.10
2018-04-27T18:31:08.232Z,24.10
2018-04-27T18:33:35.683Z,24.10
2018-04-27T18:36:03.145Z,24.10
2018-04-27T18:38:30.807Z,24.10
2018-04-27T18:40:58.254Z,24.10
2018-04-27T18:43:25.769Z,24.10
2018-04-27T18:45:53.236Z,24.00
2018-04-27T18:48:20.699Z,24.00
2018-04-27T18:50:51.714Z,24.00
2018-04-27T18:53:19.352Z,24.10
2018-04-27T18:55:47.009Z,24.10
2018-04-27T18:58:14.471Z,24.10
2018-04-27T19:00:42.032Z,24.00
2018-04-27T19:03:09.818Z,24.00
2018-04-27T19:05:37.160Z,24.00
2018-04-27T19:08:05.932Z,24.00
2018-04-27T19:10:37.853Z,23.90
2018-04-27T19:13:06.939Z,23.90
2018-04-27T19:15:34.464Z,23.90
2018-04-27T19:18:03.336Z,23.90
2018-04-27T19:20:32.305Z,23.80
2018-04-27T19:23:20.242Z,23.80
2018-04-27T19:25:48.537Z,23.80
2018-04-27T19:28:16.452Z,23.80
2018-04-27T19:30:44.626Z,23.80
2018-04-27T19:33:13.319Z,23.70
2018-04-27T19:35:41.515Z,23.70
2018-04-27T19:38:09.755Z,23.80
2018-04-27T19:40:40.381Z,23.80
2018-04-27T19:43:07.836Z,23.80
2018-04-27T19:45:35.491Z,23.80
2018-04-27T19:48:03.059Z,23.80
2018-04-27T19:50:30.520Z,23.80
2018-04-27T19:52:58.287Z,23.80
2018-04-27T19:55:25.747Z,23.80
2018-04-27T19:57:53.220Z,23.80
2018-04-27T20:00:20.684Z,23.70
2018-04-27T20:02:48.136Z,23.80
2018-04-27T20:05:15.604Z,23.80
2018-04-27T20:07:43.088Z,23.80
2018-04-27T20:10:19.089Z,23.70
2018-04-27T20:12:46.546Z,23.70
2018-04-27T20:15:14.307Z,23.70
2018-04-27T20:17:45.049Z,23.70
2018-04-27T20:20:16.169Z,23.70
2018-04-27T20:22:47.746Z,23.70
2018-04-27T20:25:15.212Z,23.70
2018-04-27T20:27:43.409Z,23.70
2018-04-27T20:30:12.362Z,23.60
2018-04-27T20:32:44.282Z,23.60
2018-04-27T20:35:14.077Z,23.70
2018-04-27T20:37:42.336Z,23.60
2018-04-27T20:40:13.207Z,23.60
2018-04-27T20:42:40.657Z,23.60
2018-04-27T20:45:10.857Z,23.60
2018-04-27T20:47:38.312Z,23.60
2018-04-27T20:50:05.836Z,23.60
2018-04-27T20:52:36.590Z,23.60
2018-04-27T20:55:06.859Z,23.60
2018-04-27T20:57:34.498Z,23.60
2018-04-27T21:00:02.837Z,23.60
2018-04-27T21:02:30.423Z,23.60
2018-04-27T21:04:57.923Z,23.60
2018-04-27T21:07:25.646Z,23.60
2018-04-27T21:09:53.110Z,23.60
2018-04-27T21:12:20.571Z,23.60
2018-04-27T21:14:48.028Z,23.60
2018-04-27T21:17:15.500Z,23.60
2018-04-27T21:19:43.111Z,23.50
2018-04-27T21:22:11.243Z,23.60
2018-04-27T21:24:38.697Z,23.60
2018-04-27T21:27:06.247Z,23.50
2018-04-27T21:29:37.088Z,23.50
2018-04-27T21:32:04.548Z,23.50
2018-04-27T21:34:32.003Z,23.50
2018-04-27T21:36:59.459Z,23.60
2018-04-27T21:39:30.591Z,23.60
2018-04-27T21:42:00.683Z,23.70
2018-04-27T21:44:30.123Z,23.70
2018-04-27T21:50:03.820Z,23.70
2018-04-27T21:52:34.087Z,23.60
2018-04-27T21:55:02.356Z,23.60
2018-04-27T21:57:32.879Z,23.60
2018-04-27T22:00:02.898Z,23.60
2018-04-27T22:02:33.988Z,23.60
2018-04-27T22:05:09.375Z,23.60
2018-04-27T22:07:37.145Z,23.50
2018-04-27T22:10:04.610Z,23.50
2018-04-27T22:12:37.897Z,23.60
2018-04-27T22:15:05.340Z,23.50
2018-04-27T22:17:32.811Z,23.50
2018-04-27T22:20:02.226Z,23.50
2018-04-27T22:22:29.673Z,23.50
2018-04-27T22:25:06.860Z,23.50
2018-04-27T22:27:34.996Z,23.50
2018-04-27T22:33:15.920Z,23.50
2018-04-27T22:35:49.919Z,23.50
2018-04-27T22:38:34.080Z,23.50
2018-04-27T22:41:01.519Z,23.50
2018-04-27T22:43:28.984Z,23.50
2018-04-27T22:46:02.947Z,23.50
2018-04-27T22:48:33.963Z,23.50
2018-04-27T22:51:01.411Z,23.50
2018-04-27T22:53:29.456Z,23.40
2018-04-27T22:55:56.911Z,23.50
2018-04-27T22:58:24.390Z,23.50
2018-04-27T23:00:52.635Z,23.50
2018-04-27T23:03:20.120Z,23.50
2018-04-27T23:05:56.514Z,23.40
2018-04-27T23:08:23.991Z,23.40
2018-04-27T23:10:57.244Z,23.50
2018-04-27T23:13:24.717Z,23.50
2018-04-27T23:15:57.090Z,23.50
2018-04-27T23:18:25.256Z,23.50
2018-04-27T23:20:55.148Z,23.50
2018-04-27T23:23:22.605Z,23.50
2018-04-27T23:25:50.306Z,23.40
2018-04-27T23:28:17.772Z,23.40
2018-04-27T23:30:45.900Z,23.40
2018-04-27T23:33:13.475Z,23.40
2018-04-27T23:38:35.867Z,23.40
2018-04-27T23:41:03.625Z,23.40
2018-04-27T23:43:31.257Z,23.40
2018-04-27T23:45:58.716Z,23.40
2018-04-27T23:48:26.295Z,23.40
2018-04-27T23:51:00.613Z,23.40
2018-04-27T23:53:29.927Z,23.40
2018-04-27T23:55:58.284Z,23.40
2018-04-27T23:58:26.520Z,23.40
